createdAt,value
2019-06-10T00:01:18.221Z,15.27
2019-06-10T00:03:51.443Z,21.03
2019-06-10T00:06:21.383Z,23.80
2019-06-10T00:08:51.742Z,18.80
2019-06-10T00:11:23.074Z,14.57
2019-06-10T00:13:53.291Z,13.37
2019-06-10T00:16:23.434Z,13.50
2019-06-10T00:18:53.807Z,11.20
2019-06-10T00:21:24.480Z,10.60
2019-06-10T00:23:54.772Z,12.47
2019-06-10T00:26:25.251Z,11.77
2019-06-10T00:28:55.653Z,10.03
2019-06-10T00:31:25.985Z,9.10
2019-06-10T00:33:56.429Z,12.17
2019-06-10T00:36:27.062Z,12.33
2019-06-10T00:38:57.376Z,8.53
2019-06-10T00:41:27.790Z,6.47
2019-06-10T00:44:00.847Z,7.90
2019-06-10T00:46:31.653Z,8.40
2019-06-10T00:49:05.613Z,7.27
2019-06-10T00:51:34.583Z,8.47
2019-06-10T00:54:06.547Z,5.87
2019-06-10T00:56:37.006Z,3.87
2019-06-10T00:59:07.792Z,6.10
2019-06-10T01:01:38.410Z,6.33
2019-06-10T01:04:13.874Z,6.37
2019-06-10T01:06:42.353Z,8.73
2019-06-10T01:09:14.810Z,4.90
2019-06-10T01:11:44.835Z,7.70
2019-06-10T01:14:15.506Z,10.70
2019-06-10T01:16:46.415Z,5.90
2019-06-10T01:19:16.910Z,5.80
2019-06-10T01:21:47.227Z,7.33
2019-06-10T01:24:18.177Z,4.63
2019-06-10T01:26:50.567Z,6.33
2019-06-10T01:29:21.222Z,5.27
2019-06-10T01:31:51.609Z,4.50
2019-06-10T01:34:22.188Z,7.67
2019-06-10T01:36:52.448Z,3.17
2019-06-10T01:39:24.127Z,9.70
2019-06-10T01:41:54.381Z,3.60
2019-06-10T01:44:24.601Z,3.47
2019-06-10T01:46:56.300Z,2.70
2019-06-10T01:49:26.674Z,3.00
2019-06-10T01:51:56.958Z,4.70
2019-06-10T01:54:28.381Z,9.40
2019-06-10T01:57:01.337Z,4.43
2019-06-10T01:59:31.295Z,2.90
2019-06-10T02:02:09.829Z,6.70
2019-06-10T02:04:41.227Z,4.53
2019-06-10T02:07:15.559Z,8.13
2019-06-10T02:09:44.883Z,2.60
2019-06-10T02:12:19.096Z,3.60
2019-06-10T02:14:50.914Z,4.03
2019-06-10T02:17:23.933Z,2.63
2019-06-10T02:19:55.216Z,4.70
2019-06-10T02:22:25.492Z,2.20
2019-06-10T02:24:57.659Z,2.83
2019-06-10T02:27:28.530Z,4.10
2019-06-10T02:30:13.398Z,2.67
2019-06-10T02:32:37.752Z,7.80
2019-06-10T02:35:14.643Z,5.53
2019-06-10T02:37:44.529Z,7.87
2019-06-10T02:40:18.426Z,6.77
2019-06-10T02:42:47.987Z,8.00
2019-06-10T02:45:23.705Z,4.40
2019-06-10T02:47:53.331Z,3.30
2019-06-10T02:50:44.131Z,3.60
2019-06-10T02:53:15.862Z,3.30
2019-06-10T02:55:45.478Z,7.60
2019-06-10T02:58:18.347Z,3.67
2019-06-10T03:00:49.040Z,7.27
2019-06-10T03:03:27.944Z,3.33
2019-06-10T03:05:53.637Z,8.90
2019-06-10T03:08:27.302Z,5.20
2019-06-10T03:10:57.241Z,6.53
2019-06-10T03:13:28.212Z,5.07
2019-06-10T03:16:15.715Z,6.20
2019-06-10T03:18:47.205Z,5.13
2019-06-10T03:21:17.986Z,6.43
2019-06-10T03:23:48.359Z,3.00
2019-06-10T03:26:19.260Z,5.67
2019-06-10T03:28:51.933Z,6.77
2019-06-10T03:31:28.381Z,3.80
2019-06-10T03:33:54.805Z,13.07
2019-06-10T03:36:26.108Z,2.97
2019-06-10T03:38:57.163Z,6.33
2019-06-10T03:41:28.037Z,3.70
2019-06-10T03:43:58.713Z,6.03
2019-06-10T03:46:29.506Z,3.00
2019-06-10T03:48:59.857Z,5.57
2019-06-10T03:51:33.306Z,5.10
2019-06-10T03:54:03.188Z,4.33
2019-06-10T03:56:33.738Z,2.90
2019-06-10T03:59:04.865Z,3.30
2019-06-10T04:01:35.176Z,2.97
2019-06-10T04:04:06.300Z,5.63
2019-06-10T04:06:36.862Z,10.17
2019-06-10T04:09:08.175Z,8.80
2019-06-10T04:11:39.382Z,7.63
2019-06-10T04:14:09.667Z,4.57
2019-06-10T04:16:40.064Z,6.80
2019-06-10T04:19:12.928Z,4.07
2019-06-10T04:21:43.279Z,8.77
2019-06-10T04:24:13.985Z,9.30
2019-06-10T04:26:44.147Z,5.33
2019-06-10T04:29:15.225Z,11.50
2019-06-10T04:31:45.433Z,4.03
2019-06-10T04:34:15.967Z,11.43
2019-06-10T04:36:46.264Z,9.50
2019-06-10T04:39:18.522Z,12.83
2019-06-10T04:41:48.802Z,15.30
2019-06-10T04:44:19.141Z,18.00
2019-06-10T04:46:51.954Z,18.13
2019-06-10T04:49:23.820Z,22.27
2019-06-10T04:51:53.323Z,13.00
2019-06-10T04:54:26.415Z,21.13
2019-06-10T04:56:56.488Z,18.60
2019-06-10T04:59:30.084Z,68.27
2019-06-10T05:02:02.755Z,359.90
2019-06-10T05:04:32.938Z,214.13
2019-06-10T05:07:03.427Z,294.27
2019-06-10T05:09:33.799Z,240.40
2019-06-10T05:12:04.413Z,214.63
2019-06-10T05:14:34.868Z,183.67
2019-06-10T05:17:05.583Z,126.07
2019-06-10T05:19:35.909Z,123.13
2019-06-10T05:22:07.401Z,121.60
2019-06-10T05:24:38.021Z,92.70
2019-06-10T05:27:08.436Z,132.20
2019-06-10T05:29:42.091Z,154.87
2019-06-10T05:32:13.235Z,96.03
2019-06-10T05:34:43.876Z,59.07
2019-06-10T05:37:14.441Z,60.43
2019-06-10T05:39:44.727Z,61.20
2019-06-10T05:42:15.125Z,60.50
2019-06-10T05:44:46.565Z,143.73
2019-06-10T05:47:16.840Z,118.27
2019-06-10T05:49:47.156Z,51.83
2019-06-10T05:52:23.371Z,47.30
2019-06-10T05:54:53.724Z,23.10
2019-06-10T05:57:25.731Z,13.63
2019-06-10T05:59:56.078Z,11.30
2019-06-10T06:02:27.718Z,13.07
2019-06-10T06:04:58.277Z,16.07
2019-06-10T06:07:29.184Z,10.90
2019-06-10T06:10:02.513Z,14.27
2019-06-10T06:12:34.541Z,12.33
2019-06-10T06:15:05.020Z,11.73
2019-06-10T06:17:36.852Z,14.23
2019-06-10T06:20:07.898Z,13.63
2019-06-10T06:22:38.377Z,18.83
2019-06-10T06:25:14.651Z,11.27
2019-06-10T06:27:43.227Z,10.50
2019-06-10T06:30:18.489Z,15.60
2019-06-10T06:32:46.267Z,10.60
2019-06-10T06:35:16.778Z,7.83
2019-06-10T06:37:47.381Z,6.23
2019-06-10T06:40:17.949Z,13.17
2019-06-10T06:42:48.348Z,10.10
2019-06-10T06:45:22.222Z,5.60
2019-06-10T06:47:53.626Z,6.10
2019-06-10T06:50:25.623Z,10.63
2019-06-10T06:53:21.271Z,7.13
2019-06-10T06:55:28.638Z,11.90
2019-06-10T06:57:59.850Z,8.67
2019-06-10T07:00:52.990Z,10.13
2019-06-10T07:03:08.056Z,11.40
2019-06-10T07:05:41.077Z,7.83
2019-06-10T07:08:13.121Z,10.50
2019-06-10T07:10:45.647Z,7.17
2019-06-10T07:13:15.916Z,6.90
2019-06-10T07:15:47.533Z,7.87
2019-06-10T07:18:18.237Z,10.23
2019-06-10T07:20:48.980Z,16.00
2019-06-10T07:23:23.106Z,7.20
2019-06-10T07:25:55.335Z,10.63
2019-06-10T07:28:25.960Z,30.27
2019-06-10T07:30:56.807Z,85.70
2019-06-10T07:33:27.183Z,13.33
2019-06-10T07:35:57.764Z,10.60
2019-06-10T07:38:28.494Z,5.70
2019-06-10T07:40:59.190Z,13.80
2019-06-10T07:43:29.314Z,7.90
2019-06-10T07:45:59.747Z,12.80
2019-06-10T07:48:32.984Z,9.33
2019-06-10T07:51:03.728Z,11.63
2019-06-10T07:53:36.599Z,7.70
2019-06-10T07:56:06.818Z,7.47
2019-06-10T07:58:47.426Z,6.90
2019-06-10T08:01:16.173Z,10.73
2019-06-10T08:03:46.779Z,12.80
2019-06-10T08:06:18.163Z,10.70
2019-06-10T08:08:48.783Z,9.00
2019-06-10T08:11:22.651Z,11.17
2019-06-10T08:13:54.247Z,7.70
2019-06-10T08:16:24.944Z,9.13
2019-06-10T08:19:22.141Z,7.03
2019-06-10T08:21:28.029Z,8.90
2019-06-10T08:23:58.611Z,9.83
2019-06-10T08:26:32.431Z,10.97
2019-06-10T08:29:04.449Z,8.73
2019-06-10T08:31:34.776Z,9.47
2019-06-10T08:34:06.374Z,14.93
2019-06-10T08:36:39.368Z,13.67
2019-06-10T08:39:12.062Z,11.87
2019-06-10T08:41:45.540Z,7.60
2019-06-10T08:44:13.400Z,12.67
2019-06-10T08:46:46.788Z,10.63
2019-06-10T08:49:17.434Z,8.70
2019-06-10T08:51:50.107Z,9.73
2019-06-10T08:54:19.859Z,12.93
2019-06-10T08:56:53.423Z,9.63
2019-06-10T08:59:24.959Z,9.50
2019-06-10T09:01:57.006Z,7.73
2019-06-10T09:04:29.530Z,10.10
2019-06-10T09:07:00.074Z,6.13
2019-06-10T09:09:32.873Z,12.93
2019-06-10T09:12:04.681Z,10.93
2019-06-10T09:14:35.538Z,11.13
2019-06-10T09:17:05.781Z,10.57
2019-06-10T09:19:36.221Z,6.93
2019-06-10T09:22:06.807Z,13.53
2019-06-10T09:24:37.052Z,12.67
2019-06-10T09:27:07.252Z,14.20
2019-06-10T09:29:39.575Z,7.27
2019-06-10T09:32:12.441Z,12.60
2019-06-10T09:34:51.574Z,12.13
2019-06-10T09:37:16.007Z,11.43
2019-06-10T09:39:53.941Z,9.87
2019-06-10T09:42:19.876Z,8.17
2019-06-10T09:44:52.622Z,18.77
2019-06-10T09:47:24.638Z,9.43
2019-06-10T09:49:55.750Z,18.67
2019-06-10T09:52:27.288Z,5.20
2019-06-10T09:54:57.715Z,9.27
2019-06-10T09:57:28.153Z,6.27
2019-06-10T09:59:59.124Z,8.50
2019-06-10T10:02:33.081Z,7.90
2019-06-10T10:05:03.100Z,9.60
2019-06-10T10:07:34.270Z,6.13
2019-06-10T10:10:06.291Z,10.93
2019-06-10T10:12:36.752Z,15.03
2019-06-10T10:15:26.492Z,13.40
2019-06-10T10:17:46.537Z,12.40
2019-06-10T10:20:16.260Z,8.17
2019-06-10T10:22:47.656Z,6.57
2019-06-10T10:25:19.832Z,11.10
2019-06-10T10:27:53.337Z,19.33
2019-06-10T10:30:26.999Z,7.90
2019-06-10T10:32:58.105Z,9.27
2019-06-10T10:36:15.930Z,10.53
2019-06-10T10:38:50.749Z,11.87
2019-06-10T10:41:24.118Z,12.50
2019-06-10T10:43:57.766Z,15.10
2019-06-10T10:46:26.986Z,12.47
2019-06-10T10:48:58.293Z,10.87
2019-06-10T10:51:28.890Z,13.00
2019-06-10T10:54:20.762Z,9.67
2019-06-10T10:56:36.002Z,11.63
2019-06-10T10:59:08.430Z,12.47
2019-06-10T11:01:39.140Z,8.07
2019-06-10T11:04:13.212Z,7.30
2019-06-10T11:06:44.890Z,10.10
2019-06-10T11:09:18.902Z,8.77
2019-06-10T11:11:54.684Z,7.53
2019-06-10T11:14:25.502Z,12.83
2019-06-10T11:16:58.048Z,6.13
2019-06-10T11:19:28.562Z,6.63
2019-06-10T11:21:58.938Z,12.33
2019-06-10T11:24:37.704Z,4.77
2019-06-10T11:27:03.120Z,9.90
2019-06-10T11:29:35.361Z,10.33
2019-06-10T11:32:06.826Z,6.87
2019-06-10T11:34:38.420Z,3.70
2019-06-10T11:37:09.070Z,7.67
2019-06-10T11:39:41.861Z,4.63
2019-06-10T11:42:13.299Z,10.40
2019-06-10T11:44:43.884Z,4.87
2019-06-10T11:47:15.412Z,8.70
2019-06-10T11:49:46.882Z,11.43
2019-06-10T11:52:17.987Z,9.93
2019-06-10T11:54:59.205Z,5.40
2019-06-10T11:57:22.832Z,5.43
2019-06-10T11:59:55.946Z,5.83
2019-06-10T12:02:27.201Z,5.53
2019-06-10T12:05:00.363Z,5.40
2019-06-10T12:07:29.896Z,2.80
2019-06-10T12:10:01.334Z,17.87
2019-06-10T12:12:33.683Z,7.73
2019-06-10T12:15:12.146Z,4.47
2019-06-10T12:17:51.189Z,5.33
2019-06-10T12:20:17.714Z,5.47
2019-06-10T12:22:49.505Z,5.20
2019-06-10T12:25:32.523Z,10.53
2019-06-10T12:27:57.400Z,6.37
2019-06-10T12:30:24.683Z,7.60
2019-06-10T12:32:58.726Z,2.87
2019-06-10T12:35:27.029Z,4.60
2019-06-10T12:37:59.838Z,14.27
2019-06-10T12:40:29.925Z,4.77
2019-06-10T12:43:02.577Z,7.40
2019-06-10T12:45:32.780Z,6.40
2019-06-10T12:48:06.333Z,4.23
2019-06-10T12:50:35.975Z,7.00
2019-06-10T12:53:07.254Z,2.97
2019-06-10T12:55:43.539Z,6.60
2019-06-10T12:58:10.355Z,7.90
2019-06-10T13:00:48.433Z,14.27
2019-06-10T13:03:18.966Z,22.80
2019-06-10T13:05:49.424Z,6.53
2019-06-10T13:08:23.970Z,10.10
2019-06-10T13:10:53.431Z,9.17
2019-06-10T13:13:23.958Z,5.23
2019-06-10T13:15:56.198Z,7.07
2019-06-10T13:18:29.760Z,4.30
2019-06-10T13:21:07.283Z,6.93
2019-06-10T13:23:36.095Z,6.80
2019-06-10T13:26:10.794Z,4.97
2019-06-10T13:28:38.633Z,7.87
2019-06-10T13:31:10.176Z,5.43
2019-06-10T13:33:42.918Z,8.47
2019-06-10T13:36:14.123Z,5.30
2019-06-10T13:38:44.948Z,10.70
2019-06-10T13:41:15.311Z,7.93
2019-06-10T13:43:46.151Z,8.10
2019-06-10T13:46:24.341Z,4.67
2019-06-10T13:48:53.504Z,5.70
2019-06-10T13:51:25.074Z,8.80
2019-06-10T13:53:56.836Z,8.53
2019-06-10T13:56:43.309Z,5.10
2019-06-10T13:59:07.569Z,3.67
2019-06-10T14:01:36.909Z,4.87
2019-06-10T14:04:15.624Z,9.30
2019-06-10T14:06:49.768Z,6.90
2019-06-10T14:09:16.611Z,7.33
2019-06-10T14:11:48.345Z,12.10
2019-06-10T14:14:18.724Z,5.40
2019-06-10T14:16:48.873Z,5.60
2019-06-10T14:19:19.336Z,8.27
2019-06-10T14:21:49.618Z,7.83
2019-06-10T14:24:22.525Z,7.50
2019-06-10T14:26:54.790Z,4.67
2019-06-10T14:29:25.517Z,5.67
2019-06-10T14:31:55.891Z,8.63
2019-06-10T14:34:26.479Z,5.00
2019-06-10T14:36:58.369Z,4.70
2019-06-10T14:39:28.492Z,3.20
2019-06-10T14:42:03.826Z,6.80
2019-06-10T14:44:33.996Z,3.63
2019-06-10T14:47:04.671Z,2.67
2019-06-10T14:49:34.967Z,4.07
2019-06-10T14:52:05.377Z,6.97
2019-06-10T14:54:38.470Z,4.03
2019-06-10T14:57:09.299Z,3.80
2019-06-10T14:59:42.423Z,3.70
2019-06-10T15:02:14.423Z,4.83
2019-06-10T15:04:44.730Z,2.40
2019-06-10T15:07:15.593Z,4.40
2019-06-10T15:09:46.596Z,3.80
2019-06-10T15:12:17.481Z,4.67
2019-06-10T15:14:48.104Z,3.07
2019-06-10T15:17:19.673Z,6.30
2019-06-10T15:19:50.074Z,3.40
2019-06-10T15:22:23.637Z,4.23
2019-06-10T15:24:53.484Z,3.27
2019-06-10T15:27:30.355Z,2.83
2019-06-10T15:29:55.753Z,2.73
2019-06-10T15:32:34.183Z,5.07
2019-06-10T15:34:58.769Z,2.23
2019-06-10T15:37:29.215Z,11.63
2019-06-10T15:39:59.711Z,5.37
2019-06-10T15:42:30.266Z,5.10
2019-06-10T15:45:02.488Z,4.20
2019-06-10T15:47:32.479Z,3.73
2019-06-10T15:50:03.176Z,5.70
2019-06-10T15:52:33.391Z,3.77
2019-06-10T15:55:04.262Z,5.50
2019-06-10T15:57:42.665Z,4.60
2019-06-10T16:00:12.264Z,4.13
2019-06-10T16:02:39.920Z,4.03
2019-06-10T16:05:13.848Z,1.63
2019-06-10T16:07:42.429Z,3.43
2019-06-10T16:10:17.806Z,3.77
2019-06-10T16:12:45.834Z,3.87
2019-06-10T16:15:17.760Z,6.40
2019-06-10T16:17:48.832Z,2.30
2019-06-10T16:20:19.652Z,5.63
2019-06-10T16:22:52.335Z,6.03
2019-06-10T16:25:25.182Z,3.20
2019-06-10T16:27:54.658Z,3.13
2019-06-10T16:30:26.046Z,3.33
2019-06-10T16:32:56.834Z,6.73
2019-06-10T16:35:27.243Z,2.67
2019-06-10T16:37:57.985Z,5.17
2019-06-10T16:40:28.375Z,4.23
2019-06-10T16:42:59.011Z,7.73
2019-06-10T16:45:31.666Z,5.53
2019-06-10T16:48:02.416Z,2.50
2019-06-10T16:50:34.010Z,7.70
2019-06-10T16:53:04.775Z,3.00
2019-06-10T16:55:35.664Z,5.53
2019-06-10T16:58:08.400Z,2.63
2019-06-10T17:00:38.080Z,4.93
2019-06-10T17:03:08.611Z,3.97
2019-06-10T17:05:38.914Z,4.00
2019-06-10T17:08:12.515Z,2.77
2019-06-10T17:10:43.509Z,4.73
2019-06-10T17:13:15.718Z,2.23
2019-06-10T17:15:46.075Z,5.90
2019-06-10T17:18:16.336Z,3.63
2019-06-10T17:20:46.828Z,5.40
2019-06-10T17:23:24.668Z,2.37
2019-06-10T17:25:57.217Z,5.93
2019-06-10T17:28:31.610Z,3.57
2019-06-10T17:31:00.075Z,5.27
2019-06-10T17:33:34.669Z,5.47
2019-06-10T17:36:03.636Z,5.73
2019-06-10T17:38:34.182Z,3.20
2019-06-10T17:41:04.393Z,5.43
2019-06-10T17:43:34.855Z,4.20
2019-06-10T17:46:05.558Z,8.93
2019-06-10T17:48:35.924Z,2.90
2019-06-10T17:51:06.429Z,9.67
2019-06-10T17:53:37.305Z,13.30
2019-06-10T17:56:07.624Z,5.80
2019-06-10T17:58:53.428Z,3.00
2019-06-10T18:01:12.738Z,4.80
2019-06-10T18:03:43.008Z,5.40
2019-06-10T18:06:14.074Z,6.83
2019-06-10T18:08:46.170Z,6.23
2019-06-10T18:11:16.698Z,8.13
2019-06-10T18:13:46.903Z,6.13
2019-06-10T18:16:17.218Z,10.93
2019-06-10T18:18:47.646Z,3.70
2019-06-10T18:21:17.926Z,5.17
2019-06-10T18:23:48.714Z,3.83
2019-06-10T18:26:18.871Z,3.93
2019-06-10T18:29:08.108Z,15.27
2019-06-10T18:31:23.317Z,6.73
2019-06-10T18:33:53.693Z,2.73
2019-06-10T18:36:25.822Z,4.00
2019-06-10T18:38:56.805Z,9.27
2019-06-10T18:41:27.854Z,6.97
2019-06-10T18:44:02.176Z,7.90
2019-06-10T18:46:33.241Z,4.43
2019-06-10T18:49:04.372Z,4.47
2019-06-10T18:51:37.259Z,2.80
2019-06-10T18:54:06.902Z,2.77
2019-06-10T18:56:38.030Z,5.50
2019-06-10T18:59:16.585Z,8.37
2019-06-10T19:01:42.274Z,9.40
2019-06-10T19:04:13.026Z,9.63
2019-06-10T19:06:43.841Z,6.90
2019-06-10T19:09:14.471Z,8.53
2019-06-10T19:11:45.076Z,8.30
2019-06-10T19:14:15.380Z,5.60
2019-06-10T19:16:45.953Z,5.10
2019-06-10T19:19:16.401Z,9.70
2019-06-10T19:22:01.908Z,6.83
2019-06-10T19:24:20.013Z,18.03
2019-06-10T19:26:52.604Z,6.40
2019-06-10T19:29:33.672Z,5.80
2019-06-10T19:34:31.764Z,6.43
2019-06-10T19:37:02.670Z,5.87
2019-06-10T19:39:38.306Z,8.13
2019-06-10T19:42:05.065Z,6.67
2019-06-10T19:44:36.944Z,10.07
2019-06-10T19:47:07.585Z,5.77
2019-06-10T19:49:38.647Z,5.07
2019-06-10T19:52:12.075Z,9.87
2019-06-10T19:54:44.196Z,12.23
2019-06-10T19:57:15.072Z,8.20
2019-06-10T20:00:03.740Z,17.63
2019-06-10T20:02:18.151Z,8.73
2019-06-10T20:04:48.336Z,6.93
2019-06-10T20:07:18.748Z,6.10
2019-06-10T20:09:49.354Z,6.03
2019-06-10T20:12:19.899Z,11.10
2019-06-10T20:14:52.888Z,15.50
2019-06-10T20:17:24.052Z,30.87
2019-06-10T20:19:54.353Z,15.87
2019-06-10T20:22:24.782Z,6.83
2019-06-10T20:24:55.311Z,7.30
2019-06-10T20:27:25.766Z,7.93
2019-06-10T20:30:07.879Z,9.70
2019-06-10T20:32:28.104Z,8.50
2019-06-10T20:34:58.394Z,9.33
2019-06-10T20:37:28.728Z,8.50
2019-06-10T20:39:58.952Z,6.77
2019-06-10T20:42:29.442Z,4.27
2019-06-10T20:45:04.556Z,7.30
2019-06-10T20:47:33.329Z,6.00
2019-06-10T20:50:04.250Z,7.97
2019-06-10T20:52:34.823Z,6.83
2019-06-10T20:55:07.297Z,7.53
2019-06-10T20:57:51.818Z,10.67
2019-06-10T21:00:22.178Z,6.63
2019-06-10T21:02:45.526Z,7.83
2019-06-10T21:05:14.529Z,13.43
2019-06-10T21:07:46.881Z,12.23
2019-06-10T21:10:22.248Z,11.00
2019-06-10T21:12:52.953Z,9.43
2019-06-10T21:15:23.247Z,14.07
2019-06-10T21:17:53.405Z,10.60
2019-06-10T21:20:23.843Z,11.37
2019-06-10T21:22:55.044Z,6.47
2019-06-10T21:25:25.441Z,6.83
2019-06-10T21:27:55.819Z,8.73
2019-06-10T21:30:37.460Z,12.00
2019-06-10T21:32:58.394Z,9.00
2019-06-10T21:35:28.637Z,7.97
2019-06-10T21:37:58.880Z,15.23
2019-06-10T21:40:29.191Z,9.63
2019-06-10T21:42:59.632Z,12.63
2019-06-10T21:45:32.308Z,7.50
2019-06-10T21:48:02.502Z,8.30
2019-06-10T21:50:33.511Z,11.20
2019-06-10T21:53:05.323Z,10.30
2019-06-10T21:55:35.691Z,8.40
2019-06-10T21:58:07.542Z,7.03
2019-06-10T22:00:59.392Z,6.13
2019-06-10T22:03:16.026Z,4.10
2019-06-10T22:05:49.544Z,6.83
2019-06-10T22:08:20.700Z,4.20
2019-06-10T22:10:54.676Z,6.40
2019-06-10T22:13:23.424Z,4.67
2019-06-10T22:15:56.989Z,9.80
2019-06-10T22:18:27.485Z,9.03
2019-06-10T22:20:58.434Z,14.90
2019-06-10T22:23:28.936Z,7.97
2019-06-10T22:26:02.602Z,9.60
2019-06-10T22:28:32.875Z,10.40
2019-06-10T22:31:18.073Z,11.57
2019-06-10T22:33:35.247Z,7.17
2019-06-10T22:36:07.204Z,9.80
2019-06-10T22:38:37.376Z,7.77
2019-06-10T22:41:08.030Z,6.30
2019-06-10T22:43:38.583Z,7.50
2019-06-10T22:46:09.260Z,6.53
2019-06-10T22:48:42.344Z,8.13
2019-06-10T22:51:12.253Z,6.77
2019-06-10T22:53:43.073Z,10.30
2019-06-10T22:56:13.557Z,14.70
2019-06-10T22:58:44.129Z,16.17
2019-06-10T23:01:30.552Z,8.50
2019-06-10T23:03:48.227Z,8.93
2019-06-10T23:06:18.453Z,12.63
2019-06-10T23:08:50.267Z,7.70
2019-06-10T23:11:23.809Z,8.23
2019-06-10T23:13:55.022Z,6.67
2019-06-10T23:16:25.927Z,10.03
2019-06-10T23:18:58.410Z,8.60
2019-06-10T23:21:29.743Z,9.57
2019-06-10T23:24:03.087Z,12.43
2019-06-10T23:26:33.352Z,6.10
2019-06-10T23:29:04.123Z,9.20
2019-06-10T23:31:48.556Z,8.33
2019-06-10T23:34:07.523Z,15.87
2019-06-10T23:36:38.986Z,8.90
2019-06-10T23:39:09.735Z,11.23
2019-06-10T23:41:43.234Z,13.47
2019-06-10T23:44:12.972Z,10.83
2019-06-10T23:46:43.558Z,8.97
2019-06-10T23:49:13.918Z,4.97
2019-06-10T23:51:44.437Z,4.67
2019-06-10T23:54:15.178Z,5.20
2019-06-10T23:56:45.634Z,10.33
2019-06-10T23:59:15.793Z,9.13
